DXB weather

Dubai International Airport
Dubai, Dubai Emirate, United Arab Emirates

Public forecast

Using degrees Celsius for public forecast. Weather courtesy of forecast.io.

METAR (pilot weather report)

Retrieved 2017/06/27 02:00 UTC (52 minutes ago):

OMDB 270200Z 18006KT 150V210 CAVOK 30/24 Q0999 NOSIG

TAF (pilot weather forecast)

Forecast is more than 12 hours old.

Retrieved 2017/06/26 00:00 UTC (1 day ago):

TAF OMDB 262301Z 2700/2806 16005KT 8000 NSC BECMG 2706/2708 33010KT BECMG 2716/2718 09005KT